N2DM KSYR-KPWM
Flight info
| Callsign | N2DM |
|---|---|
| Flight time | 1h 14m |
| Altitude | 23000 |
| Route | CAM CON |
| Aircraft | TBM9/L-VGDW/C |
Departure
| Time | 2026-04-27 11:33 |
|---|---|
| Airport | Syracuse Hancock International Airport (KSYR) |
Arrival
| Time | 2026-04-27 12:48 |
|---|---|
| Airport | Portland International Jetport (KPWM) |
| Time | Latitude | Longitude | Altitude | Speed | Heading |
|---|---|---|---|---|---|
| 2026-04-27 11:08 | 43.10540 | -76.11394 | 417 ft | 0 kts | 118° |
| 2026-04-27 11:27 | 43.10539 | -76.11392 | 417 ft | 2 kts | 111° |
| 2026-04-27 11:27 | 43.10567 | -76.11353 | 413 ft | 11 kts | 20° |
| 2026-04-27 11:27 | 43.10630 | -76.11277 | 410 ft | 14 kts | 87° |
| 2026-04-27 11:28 | 43.10633 | -76.11146 | 415 ft | 14 kts | 87° |
| 2026-04-27 11:28 | 43.10638 | -76.10999 | 414 ft | 17 kts | 87° |
| 2026-04-27 11:28 | 43.10643 | -76.10826 | 412 ft | 20 kts | 88° |
| 2026-04-27 11:28 | 43.10650 | -76.10636 | 412 ft | 20 kts | 87° |
| 2026-04-27 11:29 | 43.10656 | -76.10427 | 408 ft | 24 kts | 87° |
| 2026-04-27 11:29 | 43.10664 | -76.10192 | 406 ft | 25 kts | 88° |
| 2026-04-27 11:29 | 43.10672 | -76.09948 | 405 ft | 26 kts | 86° |
| 2026-04-27 11:29 | 43.10679 | -76.09739 | 405 ft | 18 kts | 87° |
| 2026-04-27 11:30 | 43.10686 | -76.09553 | 406 ft | 20 kts | 86° |
| 2026-04-27 11:30 | 43.10642 | -76.09411 | 404 ft | 17 kts | 120° |
| 2026-04-27 11:30 | 43.10672 | -76.09319 | 406 ft | 10 kts | 43° |
| 2026-04-27 11:30 | 43.10745 | -76.09263 | 409 ft | 14 kts | 8° |
| 2026-04-27 11:31 | 43.10839 | -76.09263 | 411 ft | 11 kts | 358° |
| 2026-04-27 11:31 | 43.10849 | -76.09264 | 411 ft | 0 kts | 356° |
| 2026-04-27 11:32 | 43.10867 | -76.09265 | 411 ft | 8 kts | 1° |
| 2026-04-27 11:32 | 43.10923 | -76.09286 | 411 ft | 9 kts | 300° |
| 2026-04-27 11:33 | 43.10924 | -76.09449 | 409 ft | 41 kts | 269° |
| 2026-04-27 11:33 | 43.10900 | -76.10182 | 453 ft | 106 kts | 268° |
| 2026-04-27 11:33 | 43.10871 | -76.11292 | 862 ft | 127 kts | 268° |
| 2026-04-27 11:33 | 43.10833 | -76.12558 | 1509 ft | 134 kts | 262° |
| 2026-04-27 11:34 | 43.10323 | -76.13694 | 2001 ft | 153 kts | 213° |
| 2026-04-27 11:34 | 43.09298 | -76.14021 | 2498 ft | 157 kts | 171° |
| 2026-04-27 11:34 | 43.08319 | -76.13417 | 3187 ft | 154 kts | 137° |
| 2026-04-27 11:34 | 43.07769 | -76.12157 | 3654 ft | 163 kts | 104° |
| 2026-04-27 11:35 | 43.07687 | -76.10497 | 3787 ft | 190 kts | 87° |
| 2026-04-27 11:35 | 43.07699 | -76.08663 | 4000 ft | 200 kts | 95° |
| 2026-04-27 11:35 | 43.07574 | -76.06685 | 4008 ft | 214 kts | 94° |
| 2026-04-27 11:35 | 43.07526 | -76.04728 | 4557 ft | 196 kts | 91° |
| 2026-04-27 11:36 | 43.07518 | -76.02981 | 5490 ft | 169 kts | 91° |
| 2026-04-27 11:36 | 43.07502 | -76.01478 | 6394 ft | 153 kts | 91° |
| 2026-04-27 11:36 | 43.07476 | -76.00013 | 6974 ft | 158 kts | 91° |
| 2026-04-27 11:36 | 43.07445 | -75.98486 | 7529 ft | 160 kts | 90° |
| 2026-04-27 11:37 | 43.07416 | -75.96961 | 8098 ft | 163 kts | 90° |
| 2026-04-27 11:37 | 43.07386 | -75.95388 | 8715 ft | 166 kts | 89° |
| 2026-04-27 11:37 | 43.07355 | -75.93816 | 9341 ft | 169 kts | 89° |
| 2026-04-27 11:37 | 43.07324 | -75.92192 | 9986 ft | 172 kts | 89° |
| 2026-04-27 11:38 | 43.07291 | -75.90538 | 10576 ft | 175 kts | 88° |
| 2026-04-27 11:38 | 43.07258 | -75.88888 | 11156 ft | 176 kts | 88° |
| 2026-04-27 11:38 | 43.07224 | -75.87189 | 11755 ft | 179 kts | 87° |
| 2026-04-27 11:38 | 43.07191 | -75.85475 | 12362 ft | 181 kts | 86° |
| 2026-04-27 11:39 | 43.07157 | -75.83769 | 13006 ft | 182 kts | 86° |
| 2026-04-27 11:39 | 43.07120 | -75.82021 | 13657 ft | 184 kts | 85° |
| 2026-04-27 11:39 | 43.07086 | -75.80257 | 14281 ft | 186 kts | 85° |
| 2026-04-27 11:39 | 43.07050 | -75.78488 | 14851 ft | 188 kts | 85° |
| 2026-04-27 11:40 | 43.07012 | -75.76684 | 15439 ft | 191 kts | 84° |
| 2026-04-27 11:40 | 43.06974 | -75.74852 | 16034 ft | 193 kts | 84° |
| 2026-04-27 11:40 | 43.06935 | -75.73017 | 16633 ft | 195 kts | 84° |
| 2026-04-27 11:40 | 43.06896 | -75.71143 | 17234 ft | 198 kts | 84° |
| 2026-04-27 11:41 | 43.06855 | -75.69243 | 17843 ft | 200 kts | 83° |
| 2026-04-27 11:41 | 43.06815 | -75.67347 | 18454 ft | 203 kts | 83° |
| 2026-04-27 11:41 | 43.06772 | -75.65408 | 19003 ft | 205 kts | 83° |
| 2026-04-27 11:41 | 43.06730 | -75.63439 | 19532 ft | 208 kts | 83° |
| 2026-04-27 11:42 | 43.06685 | -75.61438 | 20072 ft | 211 kts | 83° |
| 2026-04-27 11:42 | 43.06641 | -75.59432 | 20591 ft | 214 kts | 83° |
| 2026-04-27 11:42 | 43.06595 | -75.57371 | 21137 ft | 217 kts | 83° |
| 2026-04-27 11:42 | 43.06548 | -75.55290 | 21675 ft | 220 kts | 83° |
| 2026-04-27 11:43 | 43.06501 | -75.53205 | 22216 ft | 223 kts | 84° |
| 2026-04-27 11:43 | 43.06452 | -75.51067 | 22751 ft | 227 kts | 84° |
| 2026-04-27 11:43 | 43.06404 | -75.48807 | 22958 ft | 245 kts | 84° |
| 2026-04-27 11:43 | 43.06344 | -75.46446 | 23307 ft | 256 kts | 85° |
| 2026-04-27 11:44 | 43.06285 | -75.43942 | 23314 ft | 276 kts | 85° |
| 2026-04-27 11:44 | 43.06217 | -75.41242 | 23316 ft | 291 kts | 86° |
| 2026-04-27 11:44 | 43.06143 | -75.38413 | 23315 ft | 301 kts | 86° |
| 2026-04-27 11:44 | 43.06068 | -75.35548 | 23315 ft | 296 kts | 86° |
| 2026-04-27 11:45 | 43.05998 | -75.32819 | 23312 ft | 284 kts | 85° |
| 2026-04-27 11:45 | 43.05958 | -75.31043 | 23303 ft | 278 kts | 85° |
| 2026-04-27 11:45 | 43.05878 | -75.27557 | 23294 ft | 270 kts | 85° |
| 2026-04-27 11:45 | 43.05815 | -75.25042 | 23294 ft | 265 kts | 85° |
| 2026-04-27 11:46 | 43.05751 | -75.22524 | 23291 ft | 263 kts | 85° |
| 2026-04-27 11:46 | 43.05687 | -75.20030 | 23292 ft | 261 kts | 85° |
| 2026-04-27 11:46 | 43.05625 | -75.17559 | 23289 ft | 259 kts | 85° |
| 2026-04-27 11:46 | 43.05561 | -75.15117 | 23290 ft | 258 kts | 85° |
| 2026-04-27 11:47 | 43.05497 | -75.12651 | 23290 ft | 257 kts | 85° |
| 2026-04-27 11:47 | 43.05432 | -75.10203 | 23291 ft | 257 kts | 85° |
| 2026-04-27 11:47 | 43.05367 | -75.07779 | 23290 ft | 257 kts | 84° |
| 2026-04-27 11:47 | 43.05303 | -75.05337 | 23288 ft | 256 kts | 84° |
| 2026-04-27 11:48 | 43.05237 | -75.02886 | 23282 ft | 256 kts | 85° |
| 2026-04-27 11:48 | 43.05170 | -75.00473 | 23288 ft | 255 kts | 84° |
| 2026-04-27 11:48 | 43.05103 | -74.98037 | 23285 ft | 255 kts | 84° |
| 2026-04-27 11:48 | 43.05036 | -74.95610 | 23286 ft | 255 kts | 85° |
| 2026-04-27 11:49 | 43.04969 | -74.93189 | 23285 ft | 255 kts | 85° |
| 2026-04-27 11:49 | 43.04900 | -74.90768 | 23280 ft | 254 kts | 85° |
| 2026-04-27 11:49 | 43.04834 | -74.88431 | 23285 ft | 254 kts | 85° |
| 2026-04-27 11:49 | 43.04766 | -74.86042 | 23283 ft | 254 kts | 85° |
| 2026-04-27 11:50 | 43.04697 | -74.83627 | 23285 ft | 254 kts | 85° |
| 2026-04-27 11:50 | 43.04627 | -74.81210 | 23282 ft | 253 kts | 85° |
| 2026-04-27 11:50 | 43.04557 | -74.78796 | 23283 ft | 253 kts | 85° |
| 2026-04-27 11:50 | 43.04486 | -74.76401 | 23284 ft | 254 kts | 85° |
| 2026-04-27 11:51 | 43.04414 | -74.73984 | 23284 ft | 253 kts | 85° |
| 2026-04-27 11:51 | 43.04343 | -74.71604 | 23282 ft | 253 kts | 85° |
| 2026-04-27 11:51 | 43.04199 | -74.66800 | 23279 ft | 253 kts | 85° |
| 2026-04-27 11:52 | 43.04126 | -74.64390 | 23281 ft | 253 kts | 85° |
| 2026-04-27 11:52 | 43.04052 | -74.61983 | 23284 ft | 253 kts | 85° |
| 2026-04-27 11:52 | 43.03978 | -74.59598 | 23285 ft | 253 kts | 85° |
| 2026-04-27 11:52 | 43.03903 | -74.57218 | 23280 ft | 252 kts | 85° |
| 2026-04-27 11:53 | 43.03830 | -74.54808 | 23286 ft | 252 kts | 85° |
| 2026-04-27 11:53 | 43.03754 | -74.52403 | 23282 ft | 252 kts | 85° |
| 2026-04-27 11:53 | 43.03678 | -74.50031 | 23284 ft | 252 kts | 85° |
| 2026-04-27 11:53 | 43.03601 | -74.47626 | 23278 ft | 252 kts | 85° |
| 2026-04-27 11:54 | 43.03526 | -74.45255 | 23282 ft | 252 kts | 85° |
| 2026-04-27 11:54 | 43.03448 | -74.42849 | 23277 ft | 252 kts | 85° |
| 2026-04-27 11:54 | 43.03369 | -74.40455 | 23276 ft | 252 kts | 85° |
| 2026-04-27 11:54 | 43.03291 | -74.38062 | 23279 ft | 252 kts | 85° |
| 2026-04-27 11:55 | 43.03213 | -74.35676 | 23276 ft | 251 kts | 85° |
| 2026-04-27 11:55 | 43.03135 | -74.33318 | 23281 ft | 251 kts | 85° |
| 2026-04-27 11:55 | 43.03056 | -74.30926 | 23286 ft | 251 kts | 85° |
| 2026-04-27 11:55 | 43.02975 | -74.28535 | 23285 ft | 252 kts | 85° |
| 2026-04-27 11:56 | 43.02893 | -74.26143 | 23291 ft | 252 kts | 85° |
| 2026-04-27 11:56 | 43.02813 | -74.23745 | 23284 ft | 252 kts | 85° |
| 2026-04-27 11:56 | 43.02731 | -74.21339 | 23288 ft | 252 kts | 85° |
| 2026-04-27 11:56 | 43.02648 | -74.18969 | 23291 ft | 252 kts | 85° |
| 2026-04-27 11:57 | 43.02566 | -74.16596 | 23292 ft | 252 kts | 85° |
| 2026-04-27 11:57 | 43.02483 | -74.14192 | 23297 ft | 251 kts | 85° |
| 2026-04-27 11:57 | 43.02399 | -74.11828 | 23297 ft | 251 kts | 85° |
| 2026-04-27 11:57 | 43.02315 | -74.09435 | 23298 ft | 251 kts | 85° |
| 2026-04-27 11:58 | 43.02231 | -74.07044 | 23303 ft | 251 kts | 85° |
| 2026-04-27 11:58 | 43.02145 | -74.04645 | 23304 ft | 251 kts | 85° |
| 2026-04-27 11:58 | 43.02061 | -74.02287 | 23298 ft | 251 kts | 85° |
| 2026-04-27 11:58 | 43.01975 | -73.99890 | 23302 ft | 251 kts | 85° |
| 2026-04-27 11:59 | 43.01888 | -73.97507 | 23304 ft | 251 kts | 85° |
| 2026-04-27 11:59 | 43.01801 | -73.95139 | 23303 ft | 251 kts | 85° |
| 2026-04-27 11:59 | 43.01713 | -73.92756 | 23304 ft | 251 kts | 85° |
| 2026-04-27 11:59 | 43.01627 | -73.90392 | 23307 ft | 250 kts | 85° |
| 2026-04-27 12:00 | 43.01538 | -73.87998 | 23304 ft | 250 kts | 85° |
| 2026-04-27 12:00 | 43.01449 | -73.85621 | 23304 ft | 250 kts | 85° |
| 2026-04-27 12:00 | 43.01360 | -73.83249 | 23307 ft | 250 kts | 85° |
| 2026-04-27 12:00 | 43.01272 | -73.80901 | 23306 ft | 250 kts | 85° |
| 2026-04-27 12:01 | 43.01181 | -73.78518 | 23303 ft | 250 kts | 85° |
| 2026-04-27 12:01 | 43.01090 | -73.76144 | 23298 ft | 250 kts | 85° |
| 2026-04-27 12:01 | 43.00999 | -73.73775 | 23303 ft | 249 kts | 85° |
| 2026-04-27 12:01 | 43.00909 | -73.71432 | 23298 ft | 249 kts | 85° |
| 2026-04-27 12:02 | 43.00818 | -73.69066 | 23297 ft | 249 kts | 85° |
| 2026-04-27 12:02 | 43.00725 | -73.66694 | 23295 ft | 249 kts | 85° |
| 2026-04-27 12:02 | 43.00632 | -73.64324 | 23295 ft | 249 kts | 85° |
| 2026-04-27 12:02 | 43.00541 | -73.61987 | 23289 ft | 249 kts | 85° |
| 2026-04-27 12:03 | 43.00447 | -73.59611 | 23287 ft | 248 kts | 85° |
| 2026-04-27 12:03 | 43.00353 | -73.57276 | 23286 ft | 248 kts | 85° |
| 2026-04-27 12:03 | 43.00259 | -73.54930 | 23290 ft | 248 kts | 85° |
| 2026-04-27 12:03 | 43.00164 | -73.52559 | 23290 ft | 248 kts | 85° |
| 2026-04-27 12:04 | 43.00069 | -73.50202 | 23295 ft | 248 kts | 85° |
| 2026-04-27 12:04 | 42.99975 | -73.47885 | 23296 ft | 247 kts | 85° |
| 2026-04-27 12:04 | 42.99879 | -73.45535 | 23298 ft | 247 kts | 85° |
| 2026-04-27 12:04 | 42.99782 | -73.43192 | 23300 ft | 247 kts | 85° |
| 2026-04-27 12:05 | 42.99686 | -73.40849 | 23301 ft | 247 kts | 85° |
| 2026-04-27 12:05 | 42.99590 | -73.38506 | 23310 ft | 247 kts | 85° |
| 2026-04-27 12:05 | 42.99491 | -73.36158 | 23315 ft | 247 kts | 85° |
| 2026-04-27 12:05 | 42.99497 | -73.33833 | 23302 ft | 241 kts | 75° |
| 2026-04-27 12:06 | 42.99803 | -73.31619 | 23305 ft | 238 kts | 71° |
| 2026-04-27 12:06 | 43.00103 | -73.29397 | 23305 ft | 238 kts | 72° |
| 2026-04-27 12:06 | 43.00296 | -73.27922 | 23307 ft | 238 kts | 72° |
| 2026-04-27 12:06 | 43.00592 | -73.25709 | 23303 ft | 237 kts | 72° |
| 2026-04-27 12:07 | 43.00992 | -73.22760 | 23308 ft | 237 kts | 72° |
| 2026-04-27 12:07 | 43.01191 | -73.21283 | 23304 ft | 238 kts | 72° |
| 2026-04-27 12:07 | 43.01587 | -73.18322 | 23308 ft | 237 kts | 72° |
| 2026-04-27 12:07 | 43.01786 | -73.16839 | 23309 ft | 238 kts | 72° |
| 2026-04-27 12:08 | 43.02086 | -73.14608 | 23304 ft | 238 kts | 72° |
| 2026-04-27 12:08 | 43.02383 | -73.12389 | 23305 ft | 238 kts | 72° |
| 2026-04-27 12:08 | 43.02678 | -73.10179 | 23305 ft | 238 kts | 72° |
| 2026-04-27 12:08 | 43.02977 | -73.07933 | 23307 ft | 239 kts | 72° |
| 2026-04-27 12:09 | 43.03271 | -73.05724 | 23302 ft | 238 kts | 72° |
| 2026-04-27 12:09 | 43.03568 | -73.03481 | 23304 ft | 238 kts | 72° |
| 2026-04-27 12:09 | 43.03862 | -73.01272 | 23301 ft | 239 kts | 73° |
| 2026-04-27 12:09 | 43.04160 | -72.99024 | 23299 ft | 239 kts | 73° |
| 2026-04-27 12:10 | 43.04455 | -72.96791 | 23303 ft | 238 kts | 73° |
| 2026-04-27 12:10 | 43.04746 | -72.94590 | 23296 ft | 238 kts | 73° |
| 2026-04-27 12:10 | 43.05040 | -72.92359 | 23301 ft | 238 kts | 73° |
| 2026-04-27 12:10 | 43.05334 | -72.90133 | 23298 ft | 238 kts | 73° |
| 2026-04-27 12:11 | 43.05627 | -72.87906 | 23295 ft | 237 kts | 73° |
| 2026-04-27 12:11 | 43.05916 | -72.85704 | 23300 ft | 238 kts | 73° |
| 2026-04-27 12:11 | 43.06210 | -72.83460 | 23297 ft | 238 kts | 73° |
| 2026-04-27 12:11 | 43.06502 | -72.81227 | 23300 ft | 238 kts | 73° |
| 2026-04-27 12:12 | 43.06793 | -72.78996 | 23303 ft | 238 kts | 73° |
| 2026-04-27 12:12 | 43.07083 | -72.76772 | 23306 ft | 238 kts | 73° |
| 2026-04-27 12:12 | 43.07370 | -72.74572 | 23308 ft | 237 kts | 73° |
| 2026-04-27 12:12 | 43.07661 | -72.72335 | 23314 ft | 238 kts | 74° |
| 2026-04-27 12:13 | 43.07948 | -72.70129 | 23314 ft | 238 kts | 74° |
| 2026-04-27 12:13 | 43.08238 | -72.67892 | 23316 ft | 238 kts | 74° |
| 2026-04-27 12:13 | 43.08526 | -72.65655 | 23317 ft | 237 kts | 74° |
| 2026-04-27 12:13 | 43.08812 | -72.63448 | 23316 ft | 237 kts | 74° |
| 2026-04-27 12:14 | 43.09100 | -72.61219 | 23320 ft | 237 kts | 74° |
| 2026-04-27 12:14 | 43.09383 | -72.59022 | 23317 ft | 236 kts | 74° |
| 2026-04-27 12:14 | 43.09671 | -72.56788 | 23316 ft | 237 kts | 74° |
| 2026-04-27 12:14 | 43.09954 | -72.54576 | 23322 ft | 237 kts | 74° |
| 2026-04-27 12:15 | 43.10240 | -72.52341 | 23320 ft | 237 kts | 74° |
| 2026-04-27 12:15 | 43.10523 | -72.50135 | 23318 ft | 237 kts | 75° |
| 2026-04-27 12:15 | 43.10809 | -72.47902 | 23319 ft | 237 kts | 75° |
| 2026-04-27 12:15 | 43.11091 | -72.45686 | 23321 ft | 237 kts | 75° |
| 2026-04-27 12:16 | 43.11371 | -72.43482 | 23321 ft | 237 kts | 75° |
| 2026-04-27 12:16 | 43.11655 | -72.41253 | 23319 ft | 237 kts | 75° |
| 2026-04-27 12:16 | 43.11936 | -72.39035 | 23318 ft | 237 kts | 75° |
| 2026-04-27 12:16 | 43.12215 | -72.36836 | 23314 ft | 237 kts | 75° |
| 2026-04-27 12:17 | 43.12500 | -72.34593 | 23319 ft | 237 kts | 75° |
| 2026-04-27 12:17 | 43.12777 | -72.32393 | 23317 ft | 237 kts | 75° |
| 2026-04-27 12:17 | 43.13059 | -72.30155 | 23317 ft | 238 kts | 75° |
| 2026-04-27 12:17 | 43.13340 | -72.27923 | 23319 ft | 237 kts | 75° |
| 2026-04-27 12:18 | 43.13617 | -72.25714 | 23317 ft | 237 kts | 75° |
| 2026-04-27 12:18 | 43.13898 | -72.23481 | 23314 ft | 237 kts | 75° |
| 2026-04-27 12:18 | 43.14174 | -72.21281 | 23310 ft | 237 kts | 75° |
| 2026-04-27 12:18 | 43.14453 | -72.19053 | 23310 ft | 237 kts | 75° |
| 2026-04-27 12:19 | 43.14732 | -72.16823 | 23311 ft | 237 kts | 75° |
| 2026-04-27 12:19 | 43.15007 | -72.14618 | 23307 ft | 237 kts | 75° |
| 2026-04-27 12:19 | 43.15283 | -72.12390 | 23308 ft | 237 kts | 75° |
| 2026-04-27 12:19 | 43.15560 | -72.10162 | 23307 ft | 237 kts | 75° |
| 2026-04-27 12:20 | 43.15841 | -72.07907 | 23030 ft | 246 kts | 76° |
| 2026-04-27 12:20 | 43.16130 | -72.05575 | 22631 ft | 255 kts | 76° |
| 2026-04-27 12:20 | 43.16426 | -72.03141 | 22242 ft | 260 kts | 76° |
| 2026-04-27 12:20 | 43.16727 | -72.00690 | 21912 ft | 260 kts | 77° |
| 2026-04-27 12:21 | 43.17028 | -71.98247 | 21604 ft | 260 kts | 77° |
| 2026-04-27 12:21 | 43.17329 | -71.95808 | 21297 ft | 259 kts | 77° |
| 2026-04-27 12:21 | 43.17623 | -71.93412 | 20993 ft | 258 kts | 77° |
| 2026-04-27 12:21 | 43.17919 | -71.90994 | 20693 ft | 257 kts | 77° |
| 2026-04-27 12:22 | 43.18214 | -71.88578 | 20390 ft | 256 kts | 77° |
| 2026-04-27 12:22 | 43.18508 | -71.86180 | 20101 ft | 254 kts | 77° |
| 2026-04-27 12:22 | 43.18796 | -71.83812 | 19808 ft | 253 kts | 77° |
| 2026-04-27 12:22 | 43.19086 | -71.81427 | 19516 ft | 252 kts | 77° |
| 2026-04-27 12:23 | 43.19370 | -71.79084 | 19233 ft | 251 kts | 77° |
| 2026-04-27 12:23 | 43.19656 | -71.76724 | 18943 ft | 249 kts | 77° |
| 2026-04-27 12:23 | 43.19941 | -71.74378 | 18663 ft | 248 kts | 78° |
| 2026-04-27 12:23 | 43.20219 | -71.72070 | 18348 ft | 247 kts | 78° |
| 2026-04-27 12:24 | 43.20499 | -71.69749 | 18027 ft | 246 kts | 78° |
| 2026-04-27 12:24 | 43.20778 | -71.67435 | 17702 ft | 245 kts | 78° |
| 2026-04-27 12:24 | 43.21053 | -71.65136 | 17385 ft | 243 kts | 78° |
| 2026-04-27 12:24 | 43.21326 | -71.62871 | 17077 ft | 242 kts | 78° |
| 2026-04-27 12:25 | 43.21599 | -71.60593 | 16759 ft | 241 kts | 78° |
| 2026-04-27 12:25 | 43.21875 | -71.58327 | 16447 ft | 239 kts | 76° |
| 2026-04-27 12:25 | 43.22418 | -71.56190 | 16137 ft | 236 kts | 62° |
| 2026-04-27 12:25 | 43.23124 | -71.54196 | 15891 ft | 234 kts | 63° |
| 2026-04-27 12:26 | 43.23810 | -71.52178 | 15638 ft | 232 kts | 63° |
| 2026-04-27 12:26 | 43.24492 | -71.50175 | 15382 ft | 231 kts | 63° |
| 2026-04-27 12:26 | 43.25176 | -71.48186 | 15138 ft | 230 kts | 63° |
| 2026-04-27 12:26 | 43.25855 | -71.46209 | 14892 ft | 229 kts | 63° |
| 2026-04-27 12:27 | 43.26527 | -71.44246 | 14650 ft | 228 kts | 63° |
| 2026-04-27 12:27 | 43.27194 | -71.42296 | 14407 ft | 227 kts | 63° |
| 2026-04-27 12:27 | 43.27870 | -71.40320 | 14165 ft | 227 kts | 64° |
| 2026-04-27 12:27 | 43.28532 | -71.38384 | 13902 ft | 226 kts | 64° |
| 2026-04-27 12:28 | 43.29199 | -71.36430 | 13629 ft | 225 kts | 64° |
| 2026-04-27 12:28 | 43.29866 | -71.34473 | 13358 ft | 225 kts | 64° |
| 2026-04-27 12:28 | 43.30522 | -71.32544 | 13097 ft | 225 kts | 64° |
| 2026-04-27 12:28 | 43.31188 | -71.30600 | 12827 ft | 224 kts | 64° |
| 2026-04-27 12:29 | 43.31853 | -71.28660 | 12567 ft | 223 kts | 64° |
| 2026-04-27 12:29 | 43.32498 | -71.26750 | 12307 ft | 222 kts | 64° |
| 2026-04-27 12:29 | 43.33151 | -71.24822 | 12046 ft | 222 kts | 64° |
| 2026-04-27 12:29 | 43.33802 | -71.22909 | 11780 ft | 220 kts | 64° |
| 2026-04-27 12:30 | 43.34450 | -71.21007 | 11528 ft | 219 kts | 64° |
| 2026-04-27 12:30 | 43.35094 | -71.19104 | 11282 ft | 218 kts | 64° |
| 2026-04-27 12:30 | 43.35737 | -71.17211 | 11033 ft | 218 kts | 64° |
| 2026-04-27 12:30 | 43.36369 | -71.15346 | 10783 ft | 217 kts | 64° |
| 2026-04-27 12:31 | 43.37008 | -71.13460 | 10536 ft | 217 kts | 64° |
| 2026-04-27 12:31 | 43.37647 | -71.11576 | 10294 ft | 216 kts | 65° |
| 2026-04-27 12:31 | 43.38272 | -71.09722 | 10052 ft | 216 kts | 64° |
| 2026-04-27 12:31 | 43.38906 | -71.07853 | 9771 ft | 216 kts | 65° |
| 2026-04-27 12:32 | 43.39544 | -71.05961 | 9514 ft | 221 kts | 65° |
| 2026-04-27 12:32 | 43.40194 | -71.04015 | 9245 ft | 226 kts | 65° |
| 2026-04-27 12:32 | 43.40856 | -71.02044 | 8989 ft | 227 kts | 65° |
| 2026-04-27 12:32 | 43.41518 | -71.00087 | 8729 ft | 228 kts | 65° |
| 2026-04-27 12:33 | 43.42196 | -70.98092 | 8475 ft | 234 kts | 65° |
| 2026-04-27 12:33 | 43.42891 | -70.96014 | 8222 ft | 241 kts | 65° |
| 2026-04-27 12:33 | 43.43585 | -70.93931 | 7976 ft | 243 kts | 65° |
| 2026-04-27 12:33 | 43.44296 | -70.91813 | 7725 ft | 244 kts | 65° |
| 2026-04-27 12:34 | 43.45005 | -70.89712 | 7493 ft | 244 kts | 65° |
| 2026-04-27 12:34 | 43.45720 | -70.87581 | 7243 ft | 244 kts | 65° |
| 2026-04-27 12:34 | 43.46433 | -70.85452 | 6997 ft | 243 kts | 65° |
| 2026-04-27 12:34 | 43.47135 | -70.83358 | 6755 ft | 243 kts | 65° |
| 2026-04-27 12:35 | 43.47845 | -70.81242 | 6494 ft | 242 kts | 65° |
| 2026-04-27 12:35 | 43.48543 | -70.79131 | 6230 ft | 242 kts | 66° |
| 2026-04-27 12:35 | 43.49244 | -70.77057 | 5978 ft | 241 kts | 65° |
| 2026-04-27 12:35 | 43.49948 | -70.74952 | 5717 ft | 241 kts | 66° |
| 2026-04-27 12:36 | 43.50641 | -70.72871 | 5457 ft | 240 kts | 66° |
| 2026-04-27 12:36 | 43.51337 | -70.70782 | 5202 ft | 239 kts | 66° |
| 2026-04-27 12:36 | 43.52030 | -70.68689 | 4947 ft | 238 kts | 66° |
| 2026-04-27 12:36 | 43.52716 | -70.66628 | 4684 ft | 238 kts | 66° |
| 2026-04-27 12:37 | 43.53412 | -70.64551 | 4424 ft | 238 kts | 66° |
| 2026-04-27 12:37 | 43.54101 | -70.62471 | 4165 ft | 237 kts | 66° |
| 2026-04-27 12:37 | 43.54780 | -70.60421 | 3920 ft | 237 kts | 65° |
| 2026-04-27 12:37 | 43.55475 | -70.58347 | 3656 ft | 237 kts | 66° |
| 2026-04-27 12:38 | 43.56141 | -70.56263 | 3401 ft | 237 kts | 70° |
| 2026-04-27 12:38 | 43.56438 | -70.54029 | 3160 ft | 237 kts | 85° |
| 2026-04-27 12:38 | 43.56541 | -70.51771 | 2992 ft | 236 kts | 86° |
| 2026-04-27 12:38 | 43.56632 | -70.49542 | 2991 ft | 230 kts | 86° |
| 2026-04-27 12:39 | 43.56722 | -70.47356 | 2994 ft | 226 kts | 86° |
| 2026-04-27 12:39 | 43.56810 | -70.45206 | 2998 ft | 226 kts | 86° |
| 2026-04-27 12:39 | 43.56896 | -70.43047 | 2995 ft | 225 kts | 86° |
| 2026-04-27 12:39 | 43.56981 | -70.40895 | 2996 ft | 224 kts | 86° |
| 2026-04-27 12:40 | 43.57066 | -70.38753 | 3012 ft | 220 kts | 86° |
| 2026-04-27 12:40 | 43.57151 | -70.36666 | 3003 ft | 215 kts | 86° |
| 2026-04-27 12:40 | 43.57233 | -70.34636 | 2999 ft | 214 kts | 86° |
| 2026-04-27 12:40 | 43.57311 | -70.32658 | 2997 ft | 192 kts | 86° |
| 2026-04-27 12:41 | 43.57457 | -70.30929 | 2991 ft | 174 kts | 72° |
| 2026-04-27 12:41 | 43.57899 | -70.29437 | 2996 ft | 166 kts | 66° |
| 2026-04-27 12:41 | 43.58366 | -70.27968 | 2996 ft | 168 kts | 66° |
| 2026-04-27 12:41 | 43.58831 | -70.26511 | 3010 ft | 164 kts | 65° |
| 2026-04-27 12:42 | 43.59306 | -70.25047 | 3018 ft | 167 kts | 65° |
| 2026-04-27 12:42 | 43.59769 | -70.23585 | 2996 ft | 169 kts | 66° |
| 2026-04-27 12:42 | 43.60243 | -70.22097 | 2998 ft | 169 kts | 66° |
| 2026-04-27 12:42 | 43.60666 | -70.20614 | 2948 ft | 153 kts | 70° |
| 2026-04-27 12:43 | 43.60983 | -70.19306 | 2635 ft | 139 kts | 71° |
| 2026-04-27 12:43 | 43.61318 | -70.18083 | 2402 ft | 134 kts | 62° |
| 2026-04-27 12:43 | 43.61878 | -70.17048 | 2381 ft | 140 kts | 44° |
| 2026-04-27 12:43 | 43.62683 | -70.16223 | 2240 ft | 156 kts | 27° |
| 2026-04-27 12:44 | 43.63769 | -70.15973 | 2212 ft | 153 kts | 352° |
| 2026-04-27 12:44 | 43.64578 | -70.16800 | 2396 ft | 151 kts | 299° |
| 2026-04-27 12:44 | 43.64874 | -70.18221 | 2181 ft | 150 kts | 286° |
| 2026-04-27 12:44 | 43.65103 | -70.19580 | 1849 ft | 140 kts | 285° |
| 2026-04-27 12:45 | 43.65309 | -70.20829 | 1585 ft | 129 kts | 284° |
| 2026-04-27 12:45 | 43.65493 | -70.21977 | 1416 ft | 115 kts | 285° |
| 2026-04-27 12:45 | 43.65686 | -70.23003 | 1205 ft | 107 kts | 278° |
| 2026-04-27 12:45 | 43.65468 | -70.23960 | 1011 ft | 104 kts | 230° |
| 2026-04-27 12:46 | 43.65020 | -70.24593 | 920 ft | 89 kts | 224° |
| 2026-04-27 12:46 | 43.64587 | -70.25190 | 818 ft | 86 kts | 228° |
| 2026-04-27 12:46 | 43.64228 | -70.25838 | 717 ft | 86 kts | 239° |
| 2026-04-27 12:46 | 43.64124 | -70.26643 | 581 ft | 87 kts | 275° |
| 2026-04-27 12:47 | 43.64211 | -70.27480 | 440 ft | 90 kts | 278° |
| 2026-04-27 12:47 | 43.64288 | -70.28333 | 303 ft | 86 kts | 275° |
| 2026-04-27 12:47 | 43.64349 | -70.29130 | 171 ft | 83 kts | 276° |
| 2026-04-27 12:47 | 43.64400 | -70.29893 | 55 ft | 75 kts | 275° |
| 2026-04-27 12:48 | 43.64446 | -70.30506 | 51 ft | 52 kts | 275° |
| 2026-04-27 12:48 | 43.64464 | -70.30805 | 54 ft | 29 kts | 275° |
| 2026-04-27 12:48 | 43.64485 | -70.31049 | 60 ft | 17 kts | 297° |
| 2026-04-27 12:48 | 43.64570 | -70.31069 | 56 ft | 13 kts | 32° |
| 2026-04-27 12:49 | 43.64586 | -70.30950 | 56 ft | 15 kts | 92° |
| 2026-04-27 12:49 | 43.64575 | -70.30794 | 54 ft | 19 kts | 95° |
| 2026-04-27 12:49 | 43.64602 | -70.30695 | 53 ft | 12 kts | 2° |
| 2026-04-27 12:49 | 43.64684 | -70.30699 | 55 ft | 13 kts | 356° |
| 2026-04-27 12:50 | 43.64782 | -70.30703 | 55 ft | 16 kts | 358° |
| 2026-04-27 12:50 | 43.64902 | -70.30708 | 52 ft | 17 kts | 1° |
| 2026-04-27 12:50 | 43.64961 | -70.30764 | 52 ft | 10 kts | 268° |
| 2026-04-27 12:50 | 43.64948 | -70.30847 | 53 ft | 5 kts | 214° |
| 2026-04-27 12:51 | 43.64940 | -70.30850 | 56 ft | 0 kts | 174° |